createdAt,value
2022-11-08T00:00:43.540Z,3.13
2022-11-08T00:03:10.465Z,2.10
2022-11-08T00:05:55.821Z,1.50
2022-11-08T00:08:41.119Z,2.40
2022-11-08T00:11:26.362Z,2.17
2022-11-08T00:14:02.409Z,2.77
2022-11-08T00:16:29.560Z,3.50
2022-11-08T00:18:56.712Z,4.13
2022-11-08T00:21:23.555Z,2.53
2022-11-08T00:23:50.421Z,2.77
2022-11-08T00:26:17.463Z,1.60
2022-11-08T00:28:44.236Z,4.33
2022-11-08T00:31:11.106Z,3.03
2022-11-08T00:33:37.925Z,4.40
2022-11-08T00:36:05.123Z,3.17
2022-11-08T00:38:31.981Z,2.07
2022-11-08T00:40:58.866Z,2.17
2022-11-08T00:43:25.722Z,4.63
2022-11-08T00:45:52.538Z,2.57
2022-11-08T00:48:19.584Z,2.40
2022-11-08T00:50:46.623Z,4.33
2022-11-08T00:53:13.467Z,3.17
2022-11-08T00:55:40.292Z,2.53
2022-11-08T00:58:07.166Z,2.67
2022-11-08T01:00:34.040Z,3.60
2022-11-08T01:03:18.864Z,2.73
2022-11-08T01:05:46.336Z,2.70
2022-11-08T01:08:14.334Z,2.40
2022-11-08T01:10:43.150Z,1.80
2022-11-08T01:13:11.678Z,3.13
2022-11-08T01:15:41.449Z,3.10
2022-11-08T01:18:10.655Z,2.80
2022-11-08T01:20:44.788Z,2.50
2022-11-08T01:23:12.660Z,4.57
2022-11-08T01:25:41.514Z,3.33
2022-11-08T01:28:08.773Z,4.37
2022-11-08T01:30:43.486Z,2.53
2022-11-08T01:33:11.069Z,3.20
2022-11-08T01:35:37.956Z,2.93
2022-11-08T01:38:05.708Z,2.23
2022-11-08T01:40:33.141Z,2.40
2022-11-08T01:42:59.976Z,3.37
2022-11-08T01:46:14.606Z,2.57
2022-11-08T01:48:55.224Z,3.87
2022-11-08T01:51:29.012Z,2.53
2022-11-08T01:53:57.186Z,4.13
2022-11-08T01:56:24.465Z,5.73
2022-11-08T01:58:53.647Z,2.87
2022-11-08T02:01:20.563Z,2.37
2022-11-08T02:03:47.714Z,2.10
2022-11-08T02:06:15.300Z,5.13
2022-11-08T02:08:43.511Z,3.67
2022-11-08T02:11:14.341Z,3.00
2022-11-08T02:13:41.802Z,3.73
2022-11-08T02:16:16.626Z,3.33
2022-11-08T02:18:45.913Z,5.53
2022-11-08T02:21:42.041Z,3.40
2022-11-08T02:24:12.004Z,3.03
2022-11-08T02:26:39.518Z,2.93
2022-11-08T02:29:29.706Z,3.60
2022-11-08T02:31:56.930Z,3.90
2022-11-08T02:34:45.927Z,2.80
2022-11-08T02:37:15.752Z,2.43
2022-11-08T02:39:43.119Z,4.23
2022-11-08T02:42:18.611Z,2.97
2022-11-08T02:44:46.881Z,3.50
2022-11-08T02:47:14.265Z,2.37
2022-11-08T02:49:41.405Z,2.77
2022-11-08T02:52:08.438Z,2.37
2022-11-08T02:54:35.303Z,3.47
2022-11-08T02:57:02.100Z,3.30
2022-11-08T02:59:28.946Z,3.43
2022-11-08T03:01:55.851Z,4.57
2022-11-08T03:04:22.813Z,3.90
2022-11-08T03:06:49.614Z,2.60
2022-11-08T03:09:16.486Z,2.70
2022-11-08T03:11:43.350Z,2.97
2022-11-08T03:14:10.178Z,2.30
2022-11-08T03:16:37.109Z,2.73
2022-11-08T03:19:04.006Z,3.17
2022-11-08T03:21:30.850Z,2.20
2022-11-08T03:23:57.702Z,2.87
2022-11-08T03:26:24.501Z,4.47
2022-11-08T03:28:52.546Z,3.37
2022-11-08T03:31:19.309Z,3.17
2022-11-08T03:33:46.160Z,5.10
2022-11-08T03:36:12.962Z,4.43
2022-11-08T03:38:39.786Z,3.43
2022-11-08T03:41:06.877Z,3.70
2022-11-08T03:43:33.705Z,3.43
2022-11-08T03:46:00.506Z,3.40
2022-11-08T03:48:27.330Z,5.97
2022-11-08T03:50:54.191Z,5.37
2022-11-08T03:53:20.999Z,4.97
2022-11-08T03:55:47.841Z,4.80
2022-11-08T03:58:14.942Z,6.27
2022-11-08T04:00:41.955Z,4.43
2022-11-08T04:03:09.858Z,3.93
2022-11-08T04:05:36.629Z,4.93
2022-11-08T04:08:05.192Z,4.60
2022-11-08T04:10:31.997Z,3.53
2022-11-08T04:13:18.869Z,6.17
2022-11-08T04:15:46.771Z,4.80
2022-11-08T04:18:32.195Z,3.63
2022-11-08T04:21:19.238Z,2.97
2022-11-08T04:23:51.052Z,3.63
2022-11-08T04:26:18.862Z,2.30
2022-11-08T04:28:45.715Z,2.80
2022-11-08T04:31:20.135Z,2.90
2022-11-08T04:33:46.996Z,3.10
2022-11-08T04:36:16.073Z,3.00
2022-11-08T04:38:43.412Z,2.90
2022-11-08T04:41:12.855Z,4.67
2022-11-08T04:43:39.871Z,2.90
2022-11-08T04:46:15.608Z,2.30
2022-11-08T04:48:43.420Z,2.47
2022-11-08T04:51:26.684Z,3.63
2022-11-08T04:53:56.450Z,4.73
2022-11-08T04:56:24.426Z,2.87
2022-11-08T04:58:53.669Z,3.13
2022-11-08T05:01:24.085Z,3.00
2022-11-08T05:03:52.835Z,3.53
2022-11-08T05:06:30.914Z,2.50
2022-11-08T05:08:58.852Z,3.10
2022-11-08T05:11:28.088Z,2.97
2022-11-08T05:13:55.545Z,2.47
2022-11-08T05:16:30.774Z,2.50
2022-11-08T05:18:57.869Z,4.07
2022-11-08T05:21:43.392Z,3.93
2022-11-08T05:24:13.324Z,3.30
2022-11-08T05:26:42.609Z,2.60
2022-11-08T05:29:10.429Z,3.13
2022-11-08T05:31:37.334Z,2.00
2022-11-08T05:34:04.320Z,2.00
2022-11-08T05:36:31.130Z,2.37
2022-11-08T05:38:58.016Z,3.03
2022-11-08T05:41:26.054Z,2.30
2022-11-08T05:43:55.336Z,1.60
2022-11-08T05:46:23.736Z,1.67
2022-11-08T05:48:51.095Z,1.30
2022-11-08T05:51:18.970Z,2.33
2022-11-08T05:53:47.165Z,1.80
2022-11-08T05:56:14.180Z,1.90
2022-11-08T05:58:41.003Z,1.87
2022-11-08T06:01:11.215Z,1.93
2022-11-08T06:03:38.438Z,2.97
2022-11-08T06:06:07.997Z,2.00
2022-11-08T06:08:35.610Z,2.13
2022-11-08T06:11:10.135Z,1.67
2022-11-08T06:13:37.717Z,1.93
2022-11-08T06:16:07.547Z,4.77
2022-11-08T06:18:35.433Z,1.93
2022-11-08T06:21:04.069Z,1.87
2022-11-08T06:23:31.500Z,2.53
2022-11-08T06:25:59.261Z,2.63
2022-11-08T06:28:27.157Z,2.00
2022-11-08T06:30:54.324Z,1.90
2022-11-08T06:33:21.788Z,1.50
2022-11-08T06:35:48.950Z,1.40
2022-11-08T06:38:15.798Z,2.20
2022-11-08T06:40:42.762Z,1.70
2022-11-08T06:43:19.073Z,1.67
2022-11-08T06:45:47.198Z,2.03
2022-11-08T06:48:14.402Z,1.63
2022-11-08T06:50:42.364Z,3.53
2022-11-08T06:53:12.041Z,3.23
2022-11-08T06:55:38.850Z,1.43
2022-11-08T06:58:05.910Z,1.80
2022-11-08T07:00:32.737Z,1.13
2022-11-08T07:03:01.312Z,1.73
2022-11-08T07:05:29.663Z,2.00
2022-11-08T07:08:00.497Z,2.07
2022-11-08T07:10:30.067Z,4.33
2022-11-08T07:13:05.644Z,1.37
2022-11-08T07:15:34.160Z,1.37
2022-11-08T07:18:11.672Z,1.63
2022-11-08T07:20:39.752Z,1.40
2022-11-08T07:23:07.345Z,1.30
2022-11-08T07:25:34.544Z,1.57
2022-11-08T07:28:04.370Z,2.40
2022-11-08T07:30:32.338Z,1.67
2022-11-08T07:32:59.499Z,1.20
2022-11-08T07:35:27.821Z,5.23
2022-11-08T07:37:56.031Z,1.03
2022-11-08T07:40:23.115Z,1.27
2022-11-08T07:43:10.809Z,1.27
2022-11-08T07:45:37.406Z,1.30
2022-11-08T07:48:11.000Z,1.20
2022-11-08T07:50:39.239Z,1.63
2022-11-08T07:53:06.071Z,2.40
2022-11-08T07:55:35.253Z,1.30
2022-11-08T07:58:02.267Z,1.30
2022-11-08T08:00:33.855Z,2.00
2022-11-08T08:03:01.766Z,1.50
2022-11-08T08:05:30.089Z,1.20
2022-11-08T08:07:58.611Z,1.43
2022-11-08T08:10:27.929Z,2.67
2022-11-08T08:12:58.280Z,1.30
2022-11-08T08:15:26.294Z,1.23
2022-11-08T08:17:53.224Z,1.30
2022-11-08T08:20:20.294Z,1.13
2022-11-08T08:22:49.545Z,1.20
2022-11-08T08:25:18.087Z,1.50
2022-11-08T08:27:52.981Z,1.77
2022-11-08T08:30:20.791Z,1.20
2022-11-08T08:33:02.104Z,3.10
2022-11-08T08:35:36.873Z,1.40
2022-11-08T08:38:05.254Z,2.00
2022-11-08T08:40:33.013Z,1.33
2022-11-08T08:43:01.179Z,2.93
2022-11-08T08:45:28.823Z,1.63
2022-11-08T08:47:57.246Z,1.57
2022-11-08T08:50:25.852Z,1.80
2022-11-08T08:52:56.686Z,2.00
2022-11-08T08:55:23.502Z,4.10
2022-11-08T08:57:50.372Z,1.77
2022-11-08T09:03:09.333Z,2.70
2022-11-08T09:05:36.888Z,1.40
2022-11-08T09:08:04.487Z,1.53
2022-11-08T09:10:31.358Z,1.47
2022-11-08T09:12:58.201Z,1.30
2022-11-08T09:15:25.094Z,1.73
2022-11-08T09:17:54.552Z,1.40
2022-11-08T09:20:22.095Z,2.00
2022-11-08T09:22:49.246Z,2.17
2022-11-08T09:25:16.075Z,1.43
2022-11-08T09:27:42.890Z,1.53
2022-11-08T09:30:10.456Z,1.53
2022-11-08T09:32:59.597Z,0.90
2022-11-08T09:35:24.733Z,1.40
2022-11-08T09:37:54.887Z,1.73
2022-11-08T09:40:33.347Z,1.50
2022-11-08T09:43:20.125Z,1.30
2022-11-08T09:45:49.876Z,2.10
2022-11-08T09:48:41.884Z,1.40
2022-11-08T09:51:16.415Z,1.20
2022-11-08T09:53:52.451Z,1.63
2022-11-08T09:56:27.667Z,1.20
2022-11-08T09:59:24.719Z,1.10
2022-11-08T10:01:51.549Z,1.20
2022-11-08T10:04:23.062Z,1.03
2022-11-08T10:07:16.962Z,2.53
2022-11-08T10:10:06.659Z,2.10
2022-11-08T10:13:10.468Z,1.70
2022-11-08T10:15:56.215Z,1.47
2022-11-08T10:19:04.797Z,1.00
2022-11-08T10:21:50.286Z,1.37
2022-11-08T10:24:32.956Z,2.10
2022-11-08T10:27:00.313Z,1.87
2022-11-08T10:29:33.215Z,2.37
2022-11-08T10:32:24.842Z,1.90
2022-11-08T10:35:04.231Z,1.53
2022-11-08T10:37:33.495Z,1.90
2022-11-08T10:40:20.840Z,1.97
2022-11-08T10:42:53.218Z,2.93
2022-11-08T10:45:20.007Z,3.13
2022-11-08T10:47:47.411Z,2.77
2022-11-08T10:50:31.906Z,2.20
2022-11-08T10:53:01.616Z,2.87
2022-11-08T10:55:30.978Z,4.27
2022-11-08T10:57:57.878Z,3.37
2022-11-08T11:00:28.494Z,3.13
2022-11-08T11:03:09.875Z,2.93
2022-11-08T11:05:42.557Z,1.83
2022-11-08T11:08:09.321Z,2.10
2022-11-08T11:10:43.425Z,4.03
2022-11-08T11:13:24.973Z,1.77
2022-11-08T11:15:59.218Z,2.43
2022-11-08T11:18:37.848Z,2.00
2022-11-08T11:21:04.746Z,1.47
2022-11-08T11:23:39.740Z,1.93
2022-11-08T11:26:17.211Z,2.53
2022-11-08T11:29:05.949Z,1.40
2022-11-08T11:31:33.918Z,2.00
2022-11-08T11:34:18.810Z,2.60
2022-11-08T11:37:00.739Z,2.23
2022-11-08T11:39:52.401Z,1.57
2022-11-08T11:42:46.959Z,1.40
2022-11-08T11:45:19.713Z,2.50
2022-11-08T11:47:54.340Z,1.47
2022-11-08T11:50:27.931Z,1.30
2022-11-08T11:52:59.870Z,1.53
2022-11-08T11:55:38.118Z,6.30
2022-11-08T11:58:40.376Z,1.80
2022-11-08T12:01:27.275Z,2.33
2022-11-08T12:04:23.806Z,2.13
2022-11-08T12:07:08.804Z,2.83
2022-11-08T12:09:54.470Z,1.30
2022-11-08T12:12:42.999Z,2.50
2022-11-08T12:15:24.378Z,1.70
2022-11-08T12:18:30.569Z,2.53
2022-11-08T12:21:06.920Z,1.67
2022-11-08T12:24:00.580Z,2.67
2022-11-08T12:26:33.883Z,1.80
2022-11-08T12:29:03.704Z,2.40
2022-11-08T12:31:34.751Z,1.70
2022-11-08T12:34:30.066Z,1.70
2022-11-08T12:37:14.973Z,1.93
2022-11-08T12:39:50.297Z,2.67
2022-11-08T12:42:34.667Z,2.63
2022-11-08T12:45:21.505Z,10.50
2022-11-08T12:48:25.309Z,2.27
2022-11-08T12:51:01.465Z,2.67
2022-11-08T12:53:37.641Z,2.87
2022-11-08T12:56:11.062Z,2.63
2022-11-08T12:58:44.175Z,1.77
2022-11-08T13:01:21.993Z,2.53
2022-11-08T13:03:51.504Z,2.13
2022-11-08T13:06:37.219Z,1.83
2022-11-08T13:09:27.883Z,3.17
2022-11-08T13:12:25.834Z,2.50
2022-11-08T13:14:52.953Z,4.10
2022-11-08T13:17:24.833Z,2.03
2022-11-08T13:19:51.596Z,3.77
2022-11-08T13:22:33.337Z,2.90
2022-11-08T13:25:08.370Z,2.10
2022-11-08T13:27:41.889Z,1.77
2022-11-08T13:30:11.788Z,3.63
2022-11-08T13:32:47.494Z,2.20
2022-11-08T13:35:32.953Z,2.67
2022-11-08T13:38:21.854Z,3.37
2022-11-08T13:41:00.946Z,2.73
2022-11-08T13:43:29.541Z,3.80
2022-11-08T13:46:17.040Z,3.27
2022-11-08T13:49:05.236Z,4.03
2022-11-08T13:51:39.003Z,5.80
2022-11-08T13:54:31.134Z,3.30
2022-11-08T13:56:59.865Z,4.03
2022-11-08T13:59:33.007Z,3.60
2022-11-08T14:02:24.531Z,5.80
2022-11-08T14:04:53.810Z,4.00
2022-11-08T14:07:36.965Z,3.80
2022-11-08T14:10:09.191Z,4.63
2022-11-08T14:13:13.086Z,2.83
2022-11-08T14:15:58.123Z,4.03
2022-11-08T14:18:27.532Z,5.50
2022-11-08T14:20:56.180Z,4.27
2022-11-08T14:23:29.030Z,3.67
2022-11-08T14:26:24.255Z,3.50
2022-11-08T14:28:52.494Z,5.20
2022-11-08T14:31:34.277Z,6.37
2022-11-08T14:34:01.922Z,6.23
2022-11-08T14:36:30.686Z,5.63
2022-11-08T14:39:13.922Z,6.53
2022-11-08T14:41:46.578Z,6.57
2022-11-08T14:44:16.994Z,5.93
2022-11-08T14:46:44.036Z,5.80
2022-11-08T14:49:13.902Z,4.80
2022-11-08T14:51:42.073Z,5.63
2022-11-08T14:54:20.281Z,5.17
2022-11-08T14:56:48.210Z,5.17
2022-11-08T14:59:15.210Z,4.77
2022-11-08T15:01:47.265Z,6.50
2022-11-08T15:04:20.859Z,4.47
2022-11-08T15:06:52.156Z,3.93
2022-11-08T15:09:28.024Z,6.37
2022-11-08T15:11:58.429Z,5.13
2022-11-08T15:14:28.495Z,5.43
2022-11-08T15:17:02.609Z,4.17
2022-11-08T15:19:33.902Z,5.30
2022-11-08T15:22:23.488Z,4.20
2022-11-08T15:25:14.846Z,4.87
2022-11-08T15:27:55.323Z,6.47
2022-11-08T15:30:44.460Z,5.03
2022-11-08T15:33:23.700Z,4.77
2022-11-08T15:35:50.955Z,5.63
2022-11-08T15:38:23.888Z,5.17
2022-11-08T15:40:53.242Z,3.80
2022-11-08T15:43:32.193Z,3.70
2022-11-08T15:46:00.681Z,5.97
2022-11-08T15:48:28.033Z,4.67
2022-11-08T15:50:56.815Z,3.97
2022-11-08T15:53:25.742Z,10.70
2022-11-08T15:55:57.702Z,4.90
2022-11-08T15:58:28.423Z,7.53
2022-11-08T16:00:56.707Z,4.60
2022-11-08T16:03:24.505Z,4.53
2022-11-08T16:05:51.565Z,3.37
2022-11-08T16:08:21.180Z,4.50
2022-11-08T16:10:58.869Z,3.43
2022-11-08T16:13:30.386Z,2.97
2022-11-08T16:15:58.466Z,5.53
2022-11-08T16:18:25.960Z,13.53
2022-11-08T16:20:52.818Z,7.23
2022-11-08T16:23:19.890Z,3.23
2022-11-08T16:25:50.005Z,3.17
2022-11-08T16:28:20.165Z,2.43
2022-11-08T16:30:48.049Z,6.70
2022-11-08T16:33:21.041Z,6.03
2022-11-08T16:35:48.847Z,10.30
2022-11-08T16:38:18.997Z,11.00
2022-11-08T16:40:46.092Z,10.77
2022-11-08T16:43:15.617Z,7.50
2022-11-08T16:46:04.237Z,7.13
2022-11-08T16:48:29.408Z,6.97
2022-11-08T16:51:01.279Z,3.97
2022-11-08T16:53:29.559Z,3.73
2022-11-08T16:55:57.221Z,3.27
2022-11-08T16:58:24.790Z,4.00
2022-11-08T17:00:52.051Z,2.70
2022-11-08T17:03:22.543Z,5.10
2022-11-08T17:05:49.451Z,3.40
2022-11-08T17:08:17.088Z,2.87
2022-11-08T17:10:44.543Z,2.70
2022-11-08T17:13:15.715Z,4.33
2022-11-08T17:15:43.031Z,3.50
2022-11-08T17:18:13.335Z,4.10
2022-11-08T17:20:40.345Z,4.30
2022-11-08T17:23:09.064Z,5.10
2022-11-08T17:25:38.034Z,4.50
2022-11-08T17:28:04.954Z,3.97
2022-11-08T17:30:31.850Z,3.90
2022-11-08T17:32:58.674Z,4.47
2022-11-08T17:35:25.501Z,5.07
2022-11-08T17:37:53.628Z,3.17
2022-11-08T17:40:20.566Z,6.50
2022-11-08T17:42:47.453Z,4.43
2022-11-08T17:45:14.340Z,3.87
2022-11-08T17:47:41.192Z,2.70
2022-11-08T17:50:10.060Z,3.20
2022-11-08T17:52:37.419Z,3.40
2022-11-08T17:55:04.676Z,4.73
2022-11-08T17:57:31.549Z,2.60
2022-11-08T17:59:58.487Z,4.27
2022-11-08T18:02:28.650Z,3.13
2022-11-08T18:04:57.213Z,4.10
2022-11-08T18:07:24.746Z,5.60
2022-11-08T18:09:51.634Z,3.60
2022-11-08T18:12:18.544Z,3.13
2022-11-08T18:14:45.351Z,4.27
2022-11-08T18:17:12.214Z,2.73
2022-11-08T18:19:39.104Z,4.07
2022-11-08T18:22:06.003Z,4.90
2022-11-08T18:24:32.918Z,3.03
2022-11-08T18:26:59.775Z,4.20
2022-11-08T18:29:26.635Z,5.00
2022-11-08T18:31:53.527Z,4.30
2022-11-08T18:34:20.373Z,4.43
2022-11-08T18:36:49.191Z,3.73
2022-11-08T18:39:19.500Z,3.07
2022-11-08T18:41:47.280Z,3.20
2022-11-08T18:44:14.171Z,5.17
2022-11-08T18:46:43.416Z,3.50
2022-11-08T18:49:10.886Z,4.93
2022-11-08T18:51:37.880Z,4.80
2022-11-08T18:54:04.716Z,3.70
2022-11-08T18:56:31.685Z,2.80
2022-11-08T18:58:58.566Z,3.57
2022-11-08T19:01:25.556Z,4.43
2022-11-08T19:03:52.449Z,4.33
2022-11-08T19:06:19.694Z,3.27
2022-11-08T19:08:46.735Z,3.60
2022-11-08T19:11:14.482Z,3.00
2022-11-08T19:13:42.025Z,4.43
2022-11-08T19:16:13.580Z,3.47
2022-11-08T19:18:41.275Z,4.77
2022-11-08T19:21:20.128Z,5.07
2022-11-08T19:23:47.875Z,4.13
2022-11-08T19:26:25.741Z,3.17
2022-11-08T19:28:56.940Z,2.20
2022-11-08T19:31:25.062Z,3.63
2022-11-08T19:33:53.595Z,5.37
2022-11-08T19:36:26.094Z,4.13
2022-11-08T19:38:54.895Z,2.37
2022-11-08T19:41:23.859Z,3.37
2022-11-08T19:43:51.990Z,4.23
2022-11-08T19:46:29.146Z,5.23
2022-11-08T19:48:56.588Z,4.97
2022-11-08T19:51:26.721Z,3.80
2022-11-08T19:53:59.158Z,5.43
2022-11-08T19:56:50.250Z,4.43
2022-11-08T19:59:13.969Z,4.27
2022-11-08T20:01:41.006Z,4.80
2022-11-08T20:04:09.961Z,4.63
2022-11-08T20:06:37.644Z,4.97
2022-11-08T20:09:05.532Z,4.30
2022-11-08T20:11:35.728Z,4.13
2022-11-08T20:14:04.107Z,3.57
2022-11-08T20:16:34.364Z,3.53
2022-11-08T20:19:04.536Z,4.80
2022-11-08T20:21:31.486Z,3.80
2022-11-08T20:23:58.386Z,3.73
2022-11-08T20:26:26.927Z,3.43
2022-11-08T20:28:56.694Z,4.50
2022-11-08T20:31:24.705Z,4.03
2022-11-08T20:33:53.524Z,5.27
2022-11-08T20:36:23.333Z,3.67
2022-11-08T20:38:54.180Z,4.00
2022-11-08T20:41:21.139Z,4.33
2022-11-08T20:43:48.009Z,5.80
2022-11-08T20:46:19.530Z,5.10
2022-11-08T20:48:51.421Z,4.37
2022-11-08T20:51:20.796Z,6.90
2022-11-08T20:53:48.133Z,5.33
2022-11-08T20:56:21.355Z,4.53
2022-11-08T20:58:49.860Z,3.07
2022-11-08T21:01:22.542Z,4.63
2022-11-08T21:03:49.818Z,5.33
2022-11-08T21:06:19.955Z,4.97
2022-11-08T21:09:10.211Z,4.23
2022-11-08T21:11:35.458Z,3.33
2022-11-08T21:14:04.255Z,4.07
2022-11-08T21:16:38.586Z,3.23
2022-11-08T21:19:09.631Z,7.00
2022-11-08T21:21:37.361Z,3.77
2022-11-08T21:24:04.468Z,4.07
2022-11-08T21:26:36.202Z,4.43
2022-11-08T21:29:04.341Z,4.20
2022-11-08T21:31:31.912Z,6.43
2022-11-08T21:33:58.863Z,6.37
2022-11-08T21:36:27.035Z,4.20
2022-11-08T21:38:54.255Z,3.93
2022-11-08T21:41:21.216Z,5.10
2022-11-08T21:43:48.093Z,5.93
2022-11-08T21:46:20.675Z,5.17
2022-11-08T21:48:52.446Z,5.20
2022-11-08T21:51:19.251Z,4.30
2022-11-08T21:53:54.056Z,6.53
2022-11-08T21:56:28.113Z,5.13
2022-11-08T21:58:54.901Z,4.93
2022-11-08T22:01:25.640Z,4.00
2022-11-08T22:03:55.546Z,4.97
2022-11-08T22:06:22.753Z,3.70
2022-11-08T22:08:49.782Z,4.87
2022-11-08T22:11:16.703Z,5.67
2022-11-08T22:13:43.522Z,4.97
2022-11-08T22:16:10.371Z,4.00
2022-11-08T22:21:40.217Z,3.40
2022-11-08T22:24:17.266Z,3.53
2022-11-08T22:26:45.870Z,3.97
2022-11-08T22:29:13.355Z,3.97
2022-11-08T22:31:40.274Z,4.33
2022-11-08T22:34:08.755Z,3.77
2022-11-08T22:36:41.214Z,5.60
2022-11-08T22:39:19.093Z,3.63
2022-11-08T22:41:49.718Z,4.00
2022-11-08T22:44:17.643Z,3.83
2022-11-08T22:46:46.308Z,4.93
2022-11-08T22:49:13.997Z,3.53
2022-11-08T22:51:41.584Z,4.13
2022-11-08T22:54:08.830Z,4.70
2022-11-08T22:56:36.378Z,5.23
2022-11-08T22:59:03.604Z,3.80
2022-11-08T23:01:30.492Z,4.93
2022-11-08T23:03:57.359Z,5.97
2022-11-08T23:06:24.180Z,5.57
2022-11-08T23:08:51.177Z,3.60
2022-11-08T23:11:36.527Z,3.97
2022-11-08T23:14:21.888Z,3.07
2022-11-08T23:16:48.738Z,3.90
2022-11-08T23:19:39.227Z,3.80
2022-11-08T23:22:30.380Z,3.47
2022-11-08T23:24:57.241Z,6.27
2022-11-08T23:27:43.508Z,5.60
2022-11-08T23:30:33.739Z,5.13
2022-11-08T23:33:00.665Z,5.13
2022-11-08T23:35:27.649Z,3.77
2022-11-08T23:37:55.462Z,4.73
2022-11-08T23:40:41.106Z,3.30
2022-11-08T23:43:37.517Z,3.63
2022-11-08T23:46:09.806Z,4.83
2022-11-08T23:48:37.857Z,4.53
2022-11-08T23:51:06.947Z,4.17
2022-11-08T23:53:36.895Z,5.73
2022-11-08T23:56:04.923Z,4.20
2022-11-08T23:58:32.492Z,3.07
